sensor_id;sensor_type;location;lat;lon;timestamp;pressure;altitude;pressure_sealevel;temperature;humidity
36726;BME280;44936;52.086;5.150;2023-04-06T00:00:48;102312.25;;;4.02;100.00
36726;BME280;44936;52.086;5.150;2023-04-06T00:03:14;102325.97;;;3.99;100.00
36726;BME280;44936;52.086;5.150;2023-04-06T00:05:40;102338.06;;;3.98;100.00
36726;BME280;44936;52.086;5.150;2023-04-06T00:08:06;102343.97;;;4.12;100.00
36726;BME280;44936;52.086;5.150;2023-04-06T00:10:31;102326.25;;;4.05;100.00
36726;BME280;44936;52.086;5.150;2023-04-06T00:12:58;102334.47;;;4.13;100.00
36726;BME280;44936;52.086;5.150;2023-04-06T00:15:23;102300.81;;;3.82;100.00
36726;BME280;44936;52.086;5.150;2023-04-06T00:17:48;102309.97;;;3.91;100.00
36726;BME280;44936;52.086;5.150;2023-04-06T00:20:15;102308.41;;;3.95;100.00
36726;BME280;44936;52.086;5.150;2023-04-06T00:22:40;102302.66;;;3.84;100.00
36726;BME280;44936;52.086;5.150;2023-04-06T00:25:06;102280.03;;;3.65;100.00
36726;BME280;44936;52.086;5.150;2023-04-06T00:27:32;102312.69;;;3.78;100.00
36726;BME280;44936;52.086;5.150;2023-04-06T00:29:57;102334.47;;;3.80;100.00
36726;BME280;44936;52.086;5.150;2023-04-06T00:32:22;102334.22;;;3.92;100.00
36726;BME280;44936;52.086;5.150;2023-04-06T00:34:47;102328.56;;;3.99;100.00
36726;BME280;44936;52.086;5.150;2023-04-06T00:37:13;102315.63;;;3.84;100.00
36726;BME280;44936;52.086;5.150;2023-04-06T00:39:38;102338.59;;;3.93;100.00
36726;BME280;44936;52.086;5.150;2023-04-06T00:42:10;102346.03;;;3.70;100.00
36726;BME280;44936;52.086;5.150;2023-04-06T00:44:38;102379.66;;;4.00;100.00
36726;BME280;44936;52.086;5.150;2023-04-06T00:47:03;102349.53;;;3.87;100.00
36726;BME280;44936;52.086;5.150;2023-04-06T00:49:28;102337.31;;;4.01;100.00
36726;BME280;44936;52.086;5.150;2023-04-06T00:51:54;102305.00;;;3.80;100.00
36726;BME280;44936;52.086;5.150;2023-04-06T00:54:19;102295.19;;;3.74;100.00
36726;BME280;44936;52.086;5.150;2023-04-06T00:56:45;102320.44;;;3.93;100.00
36726;BME280;44936;52.086;5.150;2023-04-06T00:59:11;102287.25;;;3.87;100.00
36726;BME280;44936;52.086;5.150;2023-04-06T01:04:08;102352.72;;;3.82;100.00
36726;BME280;44936;52.086;5.150;2023-04-06T01:06:34;102375.19;;;3.97;100.00
36726;BME280;44936;52.086;5.150;2023-04-06T01:08:59;102381.53;;;4.03;100.00
36726;BME280;44936;52.086;5.150;2023-04-06T01:11:25;102374.88;;;4.08;100.00
36726;BME280;44936;52.086;5.150;2023-04-06T01:13:51;102381.88;;;4.09;100.00
36726;BME280;44936;52.086;5.150;2023-04-06T01:16:17;102392.00;;;4.20;100.00
36726;BME280;44936;52.086;5.150;2023-04-06T01:18:43;102396.66;;;4.26;100.00
36726;BME280;44936;52.086;5.150;2023-04-06T01:21:09;102397.28;;;4.22;100.00
36726;BME280;44936;52.086;5.150;2023-04-06T01:23:41;102381.78;;;4.23;100.00
36726;BME280;44936;52.086;5.150;2023-04-06T01:26:06;102381.38;;;4.32;100.00
36726;BME280;44936;52.086;5.150;2023-04-06T01:28:31;102389.28;;;4.34;100.00
36726;BME280;44936;52.086;5.150;2023-04-06T01:30:57;102369.44;;;4.19;100.00
36726;BME280;44936;52.086;5.150;2023-04-06T01:33:22;102373.69;;;4.34;100.00
36726;BME280;44936;52.086;5.150;2023-04-06T01:35:47;102384.22;;;4.37;100.00
36726;BME280;44936;52.086;5.150;2023-04-06T01:38:13;102389.00;;;4.45;100.00
36726;BME280;44936;52.086;5.150;2023-04-06T01:40:38;102377.41;;;4.39;100.00
36726;BME280;44936;52.086;5.150;2023-04-06T01:43:03;102377.88;;;4.48;100.00
36726;BME280;44936;52.086;5.150;2023-04-06T01:45:29;102369.44;;;4.52;100.00
36726;BME280;44936;52.086;5.150;2023-04-06T01:47:54;102365.63;;;4.45;100.00
36726;BME280;44936;52.086;5.150;2023-04-06T01:50:21;102345.81;;;4.47;100.00
36726;BME280;44936;52.086;5.150;2023-04-06T01:52:46;102346.06;;;4.52;100.00
36726;BME280;44936;52.086;5.150;2023-04-06T01:55:11;102335.06;;;4.58;100.00
36726;BME280;44936;52.086;5.150;2023-04-06T01:57:37;102338.41;;;4.55;100.00
36726;BME280;44936;52.086;5.150;2023-04-06T02:00:02;102325.34;;;4.53;100.00
36726;BME280;44936;52.086;5.150;2023-04-06T02:02:28;102365.84;;;4.66;100.00
36726;BME280;44936;52.086;5.150;2023-04-06T02:04:53;102364.13;;;4.67;100.00
36726;BME280;44936;52.086;5.150;2023-04-06T02:07:18;102350.09;;;4.63;100.00
36726;BME280;44936;52.086;5.150;2023-04-06T02:09:44;102316.31;;;4.63;100.00
36726;BME280;44936;52.086;5.150;2023-04-06T02:12:09;102320.94;;;4.69;100.00
36726;BME280;44936;52.086;5.150;2023-04-06T02:14:34;102315.63;;;4.67;100.00
36726;BME280;44936;52.086;5.150;2023-04-06T02:17:00;102289.13;;;4.57;100.00
36726;BME280;44936;52.086;5.150;2023-04-06T02:19:25;102243.22;;;4.57;100.00
36726;BME280;44936;52.086;5.150;2023-04-06T02:21:51;102261.06;;;4.67;100.00
36726;BME280;44936;52.086;5.150;2023-04-06T02:24:16;102221.88;;;4.63;100.00
36726;BME280;44936;52.086;5.150;2023-04-06T02:26:41;102261.06;;;4.67;100.00
36726;BME280;44936;52.086;5.150;2023-04-06T02:29:07;102246.47;;;4.69;100.00
36726;BME280;44936;52.086;5.150;2023-04-06T02:31:32;102266.72;;;4.76;100.00
36726;BME280;44936;52.086;5.150;2023-04-06T02:33:57;102226.47;;;4.68;100.00
36726;BME280;44936;52.086;5.150;2023-04-06T02:36:23;102205.22;;;4.59;100.00
36726;BME280;44936;52.086;5.150;2023-04-06T02:38:48;102223.19;;;4.72;100.00
36726;BME280;44936;52.086;5.150;2023-04-06T02:41:13;102243.56;;;4.81;100.00
36726;BME280;44936;52.086;5.150;2023-04-06T02:43:39;102273.28;;;4.86;100.00
36726;BME280;44936;52.086;5.150;2023-04-06T02:46:04;102274.44;;;4.75;100.00
36726;BME280;44936;52.086;5.150;2023-04-06T02:48:29;102292.56;;;4.91;100.00
36726;BME280;44936;52.086;5.150;2023-04-06T02:50:55;102269.69;;;4.84;100.00
36726;BME280;44936;52.086;5.150;2023-04-06T02:53:20;102287.06;;;4.85;100.00
36726;BME280;44936;52.086;5.150;2023-04-06T02:55:46;102286.56;;;4.92;100.00
36726;BME280;44936;52.086;5.150;2023-04-06T02:58:11;102286.47;;;4.91;100.00
36726;BME280;44936;52.086;5.150;2023-04-06T03:00:37;102280.53;;;4.93;100.00
36726;BME280;44936;52.086;5.150;2023-04-06T03:03:02;102275.25;;;4.92;100.00
36726;BME280;44936;52.086;5.150;2023-04-06T03:05:28;102311.16;;;4.99;100.00
36726;BME280;44936;52.086;5.150;2023-04-06T03:07:53;102261.06;;;4.85;100.00
36726;BME280;44936;52.086;5.150;2023-04-06T03:10:18;102307.72;;;5.00;100.00
36726;BME280;44936;52.086;5.150;2023-04-06T03:12:44;102291.19;;;4.98;100.00
36726;BME280;44936;52.086;5.150;2023-04-06T03:15:09;102310.13;;;4.95;100.00
36726;BME280;44936;52.086;5.150;2023-04-06T03:17:35;102307.16;;;4.88;100.00
36726;BME280;44936;52.086;5.150;2023-04-06T03:20:01;102300.31;;;4.90;100.00
36726;BME280;44936;52.086;5.150;2023-04-06T03:22:26;102315.09;;;4.91;100.00
36726;BME280;44936;52.086;5.150;2023-04-06T03:24:51;102302.38;;;4.79;100.00
36726;BME280;44936;52.086;5.150;2023-04-06T03:27:16;102297.81;;;4.75;100.00
36726;BME280;44936;52.086;5.150;2023-04-06T03:29:42;102290.78;;;4.72;100.00
36726;BME280;44936;52.086;5.150;2023-04-06T03:32:07;102307.06;;;4.68;100.00
36726;BME280;44936;52.086;5.150;2023-04-06T03:34:32;102296.47;;;4.65;100.00
36726;BME280;44936;52.086;5.150;2023-04-06T03:36:58;102299.44;;;4.55;100.00
36726;BME280;44936;52.086;5.150;2023-04-06T03:39:23;102270.72;;;4.52;100.00
36726;BME280;44936;52.086;5.150;2023-04-06T03:41:48;102300.41;;;4.57;100.00
36726;BME280;44936;52.086;5.150;2023-04-06T03:44:14;102285.47;;;4.53;100.00
36726;BME280;44936;52.086;5.150;2023-04-06T03:46:40;102256.09;;;4.54;100.00
36726;BME280;44936;52.086;5.150;2023-04-06T03:49:05;102229.22;;;4.53;100.00
36726;BME280;44936;52.086;5.150;2023-04-06T03:51:30;102236.16;;;4.37;100.00
36726;BME280;44936;52.086;5.150;2023-04-06T03:53:56;102245.72;;;4.38;100.00
36726;BME280;44936;52.086;5.150;2023-04-06T03:56:21;102247.06;;;4.47;100.00
36726;BME280;44936;52.086;5.150;2023-04-06T03:58:48;102242.03;;;4.50;100.00
36726;BME280;44936;52.086;5.150;2023-04-06T04:01:17;102236.75;;;4.49;100.00
36726;BME280;44936;52.086;5.150;2023-04-06T04:03:43;102235.78;;;4.47;100.00
36726;BME280;44936;52.086;5.150;2023-04-06T04:06:08;102229.03;;;4.50;100.00
36726;BME280;44936;52.086;5.150;2023-04-06T04:08:33;102227.94;;;4.45;100.00
36726;BME280;44936;52.086;5.150;2023-04-06T04:11:00;102236.31;;;4.58;100.00
36726;BME280;44936;52.086;5.150;2023-04-06T04:13:26;102239.75;;;4.57;100.00
36726;BME280;44936;52.086;5.150;2023-04-06T04:15:51;102239.38;;;4.67;100.00
36726;BME280;44936;52.086;5.150;2023-04-06T04:18:18;102230.31;;;4.59;100.00
36726;BME280;44936;52.086;5.150;2023-04-06T04:20:43;102237.78;;;4.69;100.00
36726;BME280;44936;52.086;5.150;2023-04-06T04:23:08;102214.88;;;4.62;100.00
36726;BME280;44936;52.086;5.150;2023-04-06T04:25:34;102230.69;;;4.66;100.00
36726;BME280;44936;52.086;5.150;2023-04-06T04:27:59;102238.78;;;4.72;100.00
36726;BME280;44936;52.086;5.150;2023-04-06T04:30:24;102214.38;;;4.69;100.00
36726;BME280;44936;52.086;5.150;2023-04-06T04:32:50;102201.72;;;4.76;100.00
36726;BME280;44936;52.086;5.150;2023-04-06T04:35:15;102190.00;;;4.67;100.00
36726;BME280;44936;52.086;5.150;2023-04-06T04:37:41;102148.41;;;4.67;100.00
36726;BME280;44936;52.086;5.150;2023-04-06T04:40:07;102187.00;;;4.77;100.00
36726;BME280;44936;52.086;5.150;2023-04-06T04:42:33;102204.75;;;4.86;100.00
36726;BME280;44936;52.086;5.150;2023-04-06T04:44:58;102210.06;;;4.87;100.00
36726;BME280;44936;52.086;5.150;2023-04-06T04:47:23;102203.97;;;4.87;100.00
36726;BME280;44936;52.086;5.150;2023-04-06T04:49:49;102199.88;;;4.92;100.00
36726;BME280;44936;52.086;5.150;2023-04-06T04:52:14;102168.09;;;4.79;100.00
36726;BME280;44936;52.086;5.150;2023-04-06T04:54:40;102170.25;;;4.88;100.00
36726;BME280;44936;52.086;5.150;2023-04-06T04:57:06;102191.13;;;4.90;100.00
36726;BME280;44936;52.086;5.150;2023-04-06T04:59:31;102200.75;;;4.92;100.00
36726;BME280;44936;52.086;5.150;2023-04-06T05:01:57;102160.56;;;4.86;100.00
36726;BME280;44936;52.086;5.150;2023-04-06T05:04:22;102136.38;;;4.87;100.00
36726;BME280;44936;52.086;5.150;2023-04-06T05:06:48;102168.97;;;4.98;100.00
36726;BME280;44936;52.086;5.150;2023-04-06T05:09:14;102178.25;;;4.93;100.00
36726;BME280;44936;52.086;5.150;2023-04-06T05:11:39;102227.56;;;5.09;100.00
36726;BME280;44936;52.086;5.150;2023-04-06T05:14:04;102163.63;;;4.95;100.00
36726;BME280;44936;52.086;5.150;2023-04-06T05:16:32;102191.97;;;5.08;100.00
36726;BME280;44936;52.086;5.150;2023-04-06T05:18:57;102169.94;;;5.00;100.00
36726;BME280;44936;52.086;5.150;2023-04-06T05:21:23;102172.53;;;5.00;100.00
36726;BME280;44936;52.086;5.150;2023-04-06T05:23:48;102193.63;;;5.06;100.00
36726;BME280;44936;52.086;5.150;2023-04-06T05:26:13;102156.25;;;5.04;100.00
36726;BME280;44936;52.086;5.150;2023-04-06T05:28:39;102150.50;;;5.11;100.00
36726;BME280;44936;52.086;5.150;2023-04-06T05:31:04;102183.94;;;5.21;100.00
36726;BME280;44936;52.086;5.150;2023-04-06T05:33:29;102196.94;;;5.21;100.00
36726;BME280;44936;52.086;5.150;2023-04-06T05:35:55;102198.63;;;5.21;100.00
36726;BME280;44936;52.086;5.150;2023-04-06T05:38:20;102215.28;;;5.24;100.00
36726;BME280;44936;52.086;5.150;2023-04-06T05:40:46;102212.00;;;5.28;100.00
36726;BME280;44936;52.086;5.150;2023-04-06T05:43:11;102221.50;;;5.28;100.00
36726;BME280;44936;52.086;5.150;2023-04-06T05:45:36;102201.53;;;5.27;100.00
36726;BME280;44936;52.086;5.150;2023-04-06T05:48:02;102209.63;;;5.33;100.00
36726;BME280;44936;52.086;5.150;2023-04-06T05:50:28;102197.38;;;5.30;100.00
36726;BME280;44936;52.086;5.150;2023-04-06T05:52:53;102159.97;;;5.28;100.00
36726;BME280;44936;52.086;5.150;2023-04-06T05:55:19;102163.56;;;5.30;100.00
36726;BME280;44936;52.086;5.150;2023-04-06T05:57:44;102143.41;;;5.26;100.00
36726;BME280;44936;52.086;5.150;2023-04-06T06:00:10;102113.25;;;5.12;100.00
36726;BME280;44936;52.086;5.150;2023-04-06T06:02:36;102113.06;;;5.27;100.00
36726;BME280;44936;52.086;5.150;2023-04-06T06:05:01;102118.91;;;5.21;100.00
36726;BME280;44936;52.086;5.150;2023-04-06T06:07:27;102153.69;;;5.43;100.00
36726;BME280;44936;52.086;5.150;2023-04-06T06:09:52;102130.47;;;5.28;100.00
36726;BME280;44936;52.086;5.150;2023-04-06T06:12:18;102140.81;;;5.46;100.00
36726;BME280;44936;52.086;5.150;2023-04-06T06:14:43;102166.97;;;5.68;100.00
36726;BME280;44936;52.086;5.150;2023-04-06T06:17:08;102143.16;;;5.80;100.00
36726;BME280;44936;52.086;5.150;2023-04-06T06:19:34;102133.63;;;6.00;100.00
36726;BME280;44936;52.086;5.150;2023-04-06T06:21:59;102116.44;;;6.03;100.00
36726;BME280;44936;52.086;5.150;2023-04-06T06:24:27;102116.41;;;6.24;100.00
36726;BME280;44936;52.086;5.150;2023-04-06T06:26:53;102089.53;;;6.25;100.00
36726;BME280;44936;52.086;5.150;2023-04-06T06:29:18;102119.03;;;6.45;100.00
36726;BME280;44936;52.086;5.150;2023-04-06T06:31:43;102124.59;;;6.54;100.00
36726;BME280;44936;52.086;5.150;2023-04-06T06:34:09;102095.63;;;6.46;100.00
36726;BME280;44936;52.086;5.150;2023-04-06T06:36:35;102109.19;;;6.60;100.00
36726;BME280;44936;52.086;5.150;2023-04-06T06:39:00;102133.16;;;6.51;100.00
36726;BME280;44936;52.086;5.150;2023-04-06T06:41:28;102163.09;;;6.61;100.00
36726;BME280;44936;52.086;5.150;2023-04-06T06:43:53;102127.31;;;6.57;100.00
36726;BME280;44936;52.086;5.150;2023-04-06T06:46:20;102087.75;;;6.45;100.00
36726;BME280;44936;52.086;5.150;2023-04-06T06:48:45;102088.63;;;6.45;100.00
36726;BME280;44936;52.086;5.150;2023-04-06T06:51:11;102066.13;;;6.47;100.00
36726;BME280;44936;52.086;5.150;2023-04-06T06:53:36;102093.38;;;6.56;100.00
36726;BME280;44936;52.086;5.150;2023-04-06T06:56:02;102070.63;;;6.51;100.00
36726;BME280;44936;52.086;5.150;2023-04-06T06:58:27;102082.22;;;6.60;100.00
36726;BME280;44936;52.086;5.150;2023-04-06T07:00:57;102068.47;;;6.41;100.00
36726;BME280;44936;52.086;5.150;2023-04-06T07:03:22;102106.09;;;6.70;100.00
36726;BME280;44936;52.086;5.150;2023-04-06T07:05:49;102074.06;;;6.50;100.00
36726;BME280;44936;52.086;5.150;2023-04-06T07:08:21;102087.44;;;6.60;100.00
36726;BME280;44936;52.086;5.150;2023-04-06T07:10:47;102094.56;;;6.64;100.00
36726;BME280;44936;52.086;5.150;2023-04-06T07:13:12;102062.41;;;6.63;100.00
36726;BME280;44936;52.086;5.150;2023-04-06T07:15:43;102042.81;;;6.52;100.00
36726;BME280;44936;52.086;5.150;2023-04-06T07:18:08;102051.47;;;6.51;100.00
36726;BME280;44936;52.086;5.150;2023-04-06T07:20:34;102056.06;;;6.57;100.00
36726;BME280;44936;52.086;5.150;2023-04-06T07:22:59;102066.41;;;6.77;100.00
36726;BME280;44936;52.086;5.150;2023-04-06T07:25:24;102094.59;;;6.88;100.00
36726;BME280;44936;52.086;5.150;2023-04-06T07:27:50;102077.56;;;6.97;100.00
36726;BME280;44936;52.086;5.150;2023-04-06T07:30:15;102084.22;;;7.12;100.00
36726;BME280;44936;52.086;5.150;2023-04-06T07:32:40;102066.28;;;7.21;100.00
36726;BME280;44936;52.086;5.150;2023-04-06T07:35:06;102058.72;;;7.28;100.00
36726;BME280;44936;52.086;5.150;2023-04-06T07:37:31;102034.78;;;7.40;100.00
36726;BME280;44936;52.086;5.150;2023-04-06T07:39:57;102033.31;;;7.48;100.00
36726;BME280;44936;52.086;5.150;2023-04-06T07:42:22;102012.44;;;7.48;100.00
36726;BME280;44936;52.086;5.150;2023-04-06T07:44:47;102041.03;;;7.69;100.00
36726;BME280;44936;52.086;5.150;2023-04-06T07:47:13;102005.84;;;7.59;100.00
36726;BME280;44936;52.086;5.150;2023-04-06T07:49:38;102018.41;;;7.70;100.00
36726;BME280;44936;52.086;5.150;2023-04-06T07:52:05;102026.53;;;7.79;100.00
36726;BME280;44936;52.086;5.150;2023-04-06T07:54:30;102026.63;;;7.82;100.00
36726;BME280;44936;52.086;5.150;2023-04-06T07:56:55;102026.19;;;7.95;100.00
36726;BME280;44936;52.086;5.150;2023-04-06T07:59:20;101998.69;;;7.79;100.00
36726;BME280;44936;52.086;5.150;2023-04-06T08:01:46;102011.72;;;8.05;100.00
36726;BME280;44936;52.086;5.150;2023-04-06T08:04:11;102002.72;;;8.23;100.00
36726;BME280;44936;52.086;5.150;2023-04-06T08:06:37;101980.34;;;8.32;100.00
36726;BME280;44936;52.086;5.150;2023-04-06T08:09:02;101988.22;;;8.33;100.00
36726;BME280;44936;52.086;5.150;2023-04-06T08:11:28;101974.41;;;8.37;100.00
36726;BME280;44936;52.086;5.150;2023-04-06T08:13:54;101973.41;;;8.34;100.00
36726;BME280;44936;52.086;5.150;2023-04-06T08:16:22;101983.28;;;8.42;100.00
36726;BME280;44936;52.086;5.150;2023-04-06T08:18:47;101984.75;;;8.63;100.00
36726;BME280;44936;52.086;5.150;2023-04-06T08:21:12;101981.22;;;8.61;100.00
36726;BME280;44936;52.086;5.150;2023-04-06T08:23:38;101963.09;;;8.67;100.00
36726;BME280;44936;52.086;5.150;2023-04-06T08:26:03;101966.13;;;8.82;100.00
36726;BME280;44936;52.086;5.150;2023-04-06T08:28:28;101963.91;;;8.96;100.00
36726;BME280;44936;52.086;5.150;2023-04-06T08:30:54;101942.97;;;8.96;100.00
36726;BME280;44936;52.086;5.150;2023-04-06T08:33:19;101943.97;;;9.01;100.00
36726;BME280;44936;52.086;5.150;2023-04-06T08:35:44;101951.06;;;9.05;100.00
36726;BME280;44936;52.086;5.150;2023-04-06T08:38:10;101956.94;;;8.96;100.00
36726;BME280;44936;52.086;5.150;2023-04-06T08:40:36;101927.28;;;8.96;100.00
36726;BME280;44936;52.086;5.150;2023-04-06T08:43:03;101965.22;;;9.12;100.00
36726;BME280;44936;52.086;5.150;2023-04-06T08:45:33;101959.81;;;9.05;100.00
36726;BME280;44936;52.086;5.150;2023-04-06T08:47:59;101965.03;;;9.05;100.00
36726;BME280;44936;52.086;5.150;2023-04-06T08:50:28;101979.34;;;9.18;100.00
36726;BME280;44936;52.086;5.150;2023-04-06T08:52:55;101967.91;;;9.15;100.00
36726;BME280;44936;52.086;5.150;2023-04-06T08:55:21;101971.41;;;9.15;100.00
36726;BME280;44936;52.086;5.150;2023-04-06T08:57:47;101965.97;;;9.07;100.00
36726;BME280;44936;52.086;5.150;2023-04-06T09:00:14;101971.34;;;9.12;100.00
36726;BME280;44936;52.086;5.150;2023-04-06T09:02:42;101965.63;;;8.95;100.00
36726;BME280;44936;52.086;5.150;2023-04-06T09:05:08;101975.53;;;9.07;100.00
36726;BME280;44936;52.086;5.150;2023-04-06T09:07:36;101979.94;;;9.08;100.00
36726;BME280;44936;52.086;5.150;2023-04-06T09:10:02;101953.72;;;9.06;100.00
36726;BME280;44936;52.086;5.150;2023-04-06T09:12:30;101975.44;;;9.02;100.00
36726;BME280;44936;52.086;5.150;2023-04-06T09:14:57;101955.28;;;9.00;100.00
36726;BME280;44936;52.086;5.150;2023-04-06T09:17:24;101977.91;;;8.98;100.00
36726;BME280;44936;52.086;5.150;2023-04-06T09:19:50;102023.84;;;9.18;100.00
36726;BME280;44936;52.086;5.150;2023-04-06T09:22:17;102019.97;;;9.04;100.00
36726;BME280;44936;52.086;5.150;2023-04-06T09:24:44;102045.41;;;9.09;100.00
36726;BME280;44936;52.086;5.150;2023-04-06T09:27:10;102043.38;;;8.99;100.00
36726;BME280;44936;52.086;5.150;2023-04-06T09:29:36;102056.50;;;9.01;100.00
36726;BME280;44936;52.086;5.150;2023-04-06T09:32:06;102041.91;;;8.79;100.00
36726;BME280;44936;52.086;5.150;2023-04-06T09:34:32;102051.72;;;8.86;100.00
36726;BME280;44936;52.086;5.150;2023-04-06T09:36:58;102043.16;;;8.92;100.00
36726;BME280;44936;52.086;5.150;2023-04-06T09:39:23;102067.91;;;9.03;100.00
36726;BME280;44936;52.086;5.150;2023-04-06T09:41:53;102070.97;;;8.88;100.00
36726;BME280;44936;52.086;5.150;2023-04-06T09:44:19;102125.75;;;9.12;100.00
36726;BME280;44936;52.086;5.150;2023-04-06T09:46:46;102095.13;;;9.09;100.00
36726;BME280;44936;52.086;5.150;2023-04-06T09:49:13;102101.72;;;9.27;100.00
36726;BME280;44936;52.086;5.150;2023-04-06T09:51:44;102054.16;;;9.10;100.00
36726;BME280;44936;52.086;5.150;2023-04-06T09:54:12;102072.81;;;9.22;100.00
36726;BME280;44936;52.086;5.150;2023-04-06T09:57:21;102072.22;;;9.32;100.00
36726;BME280;44936;52.086;5.150;2023-04-06T10:00:03;102105.34;;;9.30;100.00
36726;BME280;44936;52.086;5.150;2023-04-06T10:05:06;102114.06;;;9.29;100.00
36726;BME280;44936;52.086;5.150;2023-04-06T10:07:34;102141.63;;;9.18;100.00
36726;BME280;44936;52.086;5.150;2023-04-06T10:10:02;102125.56;;;9.06;100.00
36726;BME280;44936;52.086;5.150;2023-04-06T10:12:28;102138.94;;;8.87;100.00
36726;BME280;44936;52.086;5.150;2023-04-06T10:14:54;102129.44;;;8.90;100.00
36726;BME280;44936;52.086;5.150;2023-04-06T10:17:19;102153.28;;;8.99;100.00
36726;BME280;44936;52.086;5.150;2023-04-06T10:19:53;102146.91;;;8.91;100.00
36726;BME280;44936;52.086;5.150;2023-04-06T10:22:41;102149.41;;;8.87;100.00
36726;BME280;44936;52.086;5.150;2023-04-06T10:25:09;102133.53;;;8.80;100.00
36726;BME280;44936;52.086;5.150;2023-04-06T10:27:34;102149.63;;;8.93;100.00
36726;BME280;44936;52.086;5.150;2023-04-06T10:30:05;102138.91;;;8.85;100.00
36726;BME280;44936;52.086;5.150;2023-04-06T10:32:38;102151.00;;;8.82;100.00
36726;BME280;44936;52.086;5.150;2023-04-06T10:35:11;102142.16;;;8.78;100.00
36726;BME280;44936;52.086;5.150;2023-04-06T10:38:00;102145.31;;;8.66;100.00
36726;BME280;44936;52.086;5.150;2023-04-06T10:40:26;102115.13;;;8.49;100.00
36726;BME280;44936;52.086;5.150;2023-04-06T10:42:53;102144.28;;;8.63;100.00
36726;BME280;44936;52.086;5.150;2023-04-06T10:45:20;102138.25;;;8.65;100.00
36726;BME280;44936;52.086;5.150;2023-04-06T10:47:46;102112.78;;;8.58;100.00
36726;BME280;44936;52.086;5.150;2023-04-06T10:50:14;102142.84;;;8.72;100.00
36726;BME280;44936;52.086;5.150;2023-04-06T10:52:40;102131.03;;;8.84;100.00
36726;BME280;44936;52.086;5.150;2023-04-06T10:55:06;102115.47;;;8.90;100.00
36726;BME280;44936;52.086;5.150;2023-04-06T10:57:34;102119.19;;;8.96;100.00
36726;BME280;44936;52.086;5.150;2023-04-06T11:00:02;102112.28;;;9.00;100.00
36726;BME280;44936;52.086;5.150;2023-04-06T11:02:28;102100.00;;;8.97;100.00
36726;BME280;44936;52.086;5.150;2023-04-06T11:04:58;102115.09;;;9.06;100.00
36726;BME280;44936;52.086;5.150;2023-04-06T11:07:27;102060.25;;;8.80;100.00
36726;BME280;44936;52.086;5.150;2023-04-06T11:09:54;102109.22;;;9.13;100.00
36726;BME280;44936;52.086;5.150;2023-04-06T11:12:27;102108.41;;;9.16;100.00
36726;BME280;44936;52.086;5.150;2023-04-06T11:14:57;102093.47;;;9.12;100.00
36726;BME280;44936;52.086;5.150;2023-04-06T11:17:30;102103.38;;;9.23;100.00
36726;BME280;44936;52.086;5.150;2023-04-06T11:19:56;102056.44;;;8.99;100.00
36726;BME280;44936;52.086;5.150;2023-04-06T11:22:22;102084.03;;;9.18;100.00
36726;BME280;44936;52.086;5.150;2023-04-06T11:24:48;102099.94;;;9.24;100.00
36726;BME280;44936;52.086;5.150;2023-04-06T11:27:17;102056.94;;;9.16;100.00
36726;BME280;44936;52.086;5.150;2023-04-06T11:29:43;102078.13;;;9.25;100.00
36726;BME280;44936;52.086;5.150;2023-04-06T11:32:11;102091.84;;;9.17;100.00
36726;BME280;44936;52.086;5.150;2023-04-06T11:34:38;102062.50;;;8.97;100.00
36726;BME280;44936;52.086;5.150;2023-04-06T11:37:09;102076.50;;;8.99;100.00
36726;BME280;44936;52.086;5.150;2023-04-06T11:39:54;102091.06;;;9.19;100.00
36726;BME280;44936;52.086;5.150;2023-04-06T11:42:29;102075.44;;;9.22;100.00
36726;BME280;44936;52.086;5.150;2023-04-06T11:44:56;102068.34;;;9.18;100.00
36726;BME280;44936;52.086;5.150;2023-04-06T11:47:36;102075.19;;;9.13;100.00
36726;BME280;44936;52.086;5.150;2023-04-06T11:50:10;102054.69;;;9.28;100.00
36726;BME280;44936;52.086;5.150;2023-04-06T11:52:36;102057.97;;;9.21;100.00
36726;BME280;44936;52.086;5.150;2023-04-06T11:55:16;102038.72;;;9.19;100.00
36726;BME280;44936;52.086;5.150;2023-04-06T11:57:43;102033.28;;;9.12;100.00
36726;BME280;44936;52.086;5.150;2023-04-06T12:00:10;102056.00;;;9.14;100.00
36726;BME280;44936;52.086;5.150;2023-04-06T12:02:37;102033.03;;;9.04;100.00
36726;BME280;44936;52.086;5.150;2023-04-06T12:05:05;102038.19;;;9.01;100.00
36726;BME280;44936;52.086;5.150;2023-04-06T12:07:31;102011.19;;;9.02;100.00
36726;BME280;44936;52.086;5.150;2023-04-06T12:09:57;102036.28;;;9.27;100.00
36726;BME280;44936;52.086;5.150;2023-04-06T12:12:23;102033.50;;;9.19;100.00
36726;BME280;44936;52.086;5.150;2023-04-06T12:14:48;102033.53;;;9.21;100.00
36726;BME280;44936;52.086;5.150;2023-04-06T12:17:14;102031.69;;;9.18;100.00
36726;BME280;44936;52.086;5.150;2023-04-06T12:19:39;102020.19;;;9.12;100.00
36726;BME280;44936;52.086;5.150;2023-04-06T12:22:05;102025.53;;;9.16;100.00
36726;BME280;44936;52.086;5.150;2023-04-06T12:24:31;102029.66;;;9.08;100.00
36726;BME280;44936;52.086;5.150;2023-04-06T12:26:56;102031.44;;;9.09;100.00
36726;BME280;44936;52.086;5.150;2023-04-06T12:29:24;102035.88;;;9.12;100.00
36726;BME280;44936;52.086;5.150;2023-04-06T12:31:50;102009.81;;;8.85;100.00
36726;BME280;44936;52.086;5.150;2023-04-06T12:34:16;102038.44;;;8.80;100.00
36726;BME280;44936;52.086;5.150;2023-04-06T12:36:42;101998.03;;;8.69;100.00
36726;BME280;44936;52.086;5.150;2023-04-06T12:39:07;102023.06;;;8.91;100.00
36726;BME280;44936;52.086;5.150;2023-04-06T12:41:33;101978.97;;;8.74;100.00
36726;BME280;44936;52.086;5.150;2023-04-06T12:43:59;102000.94;;;8.79;100.00
36726;BME280;44936;52.086;5.150;2023-04-06T12:46:27;101964.91;;;8.69;100.00
36726;BME280;44936;52.086;5.150;2023-04-06T12:48:55;101997.66;;;8.87;100.00
36726;BME280;44936;52.086;5.150;2023-04-06T12:51:23;101948.09;;;8.61;100.00